createdAt,value
2022-11-22T00:00:39.737Z,5.20
2022-11-22T00:03:06.885Z,5.20
2022-11-22T00:05:34.217Z,5.90
2022-11-22T00:08:01.038Z,6.50
2022-11-22T00:10:27.986Z,6.30
2022-11-22T00:12:54.919Z,5.30
2022-11-22T00:15:21.795Z,5.30
2022-11-22T00:17:48.719Z,6.70
2022-11-22T00:20:15.861Z,5.40
2022-11-22T00:22:44.750Z,5.20
2022-11-22T00:25:12.602Z,6.20
2022-11-22T00:27:39.885Z,5.30
2022-11-22T00:30:07.847Z,6.60
2022-11-22T00:32:34.815Z,5.30
2022-11-22T00:35:01.693Z,5.70
2022-11-22T00:37:28.599Z,5.30
2022-11-22T00:39:55.465Z,5.80
2022-11-22T00:42:22.369Z,5.30
2022-11-22T00:44:49.248Z,5.50
2022-11-22T00:47:16.157Z,5.70
2022-11-22T00:49:43.197Z,6.00
2022-11-22T00:52:10.048Z,6.30
2022-11-22T00:54:36.935Z,6.50
2022-11-22T00:57:03.802Z,6.60
2022-11-22T00:59:30.959Z,6.70
2022-11-22T01:01:58.142Z,6.30
2022-11-22T01:04:25.019Z,6.10
2022-11-22T01:06:51.888Z,6.40
2022-11-22T01:09:21.906Z,6.10
2022-11-22T01:11:48.888Z,5.30
2022-11-22T01:14:16.609Z,5.60
2022-11-22T01:16:43.896Z,6.50
2022-11-22T01:19:11.268Z,6.80
2022-11-22T01:21:38.832Z,5.90
2022-11-22T01:24:06.061Z,5.30
2022-11-22T01:26:33.842Z,5.30
2022-11-22T01:29:00.756Z,6.50
2022-11-22T01:31:27.765Z,5.70
2022-11-22T01:33:54.644Z,5.30
2022-11-22T01:36:21.645Z,5.30
2022-11-22T01:38:48.503Z,5.20
2022-11-22T01:41:15.412Z,5.80
2022-11-22T01:43:42.301Z,5.60
2022-11-22T01:46:39.532Z,5.20
2022-11-22T01:49:30.723Z,6.30
2022-11-22T01:52:07.505Z,5.30
2022-11-22T01:54:38.494Z,5.30
2022-11-22T01:57:10.829Z,5.40
2022-11-22T01:59:42.148Z,6.20
2022-11-22T02:02:09.049Z,5.90
2022-11-22T02:04:37.595Z,5.40
2022-11-22T02:07:11.057Z,5.50
2022-11-22T02:09:40.794Z,6.20
2022-11-22T02:12:09.958Z,5.40
2022-11-22T02:14:38.495Z,6.40
2022-11-22T02:17:05.390Z,5.40
2022-11-22T02:19:46.418Z,5.40
2022-11-22T02:22:20.056Z,5.40
2022-11-22T02:25:19.786Z,6.00
2022-11-22T02:27:47.051Z,5.50
2022-11-22T02:30:13.997Z,5.40
2022-11-22T02:32:40.871Z,5.50
2022-11-22T02:35:20.057Z,6.00
2022-11-22T02:37:51.471Z,6.60
2022-11-22T02:40:20.170Z,6.60
2022-11-22T02:42:56.321Z,5.70
2022-11-22T02:45:23.187Z,5.60
2022-11-22T02:47:50.077Z,5.50
2022-11-22T02:50:17.076Z,6.50
2022-11-22T02:52:43.973Z,6.20
2022-11-22T02:55:10.904Z,5.70
2022-11-22T02:57:37.770Z,5.70
2022-11-22T03:00:05.261Z,6.60
2022-11-22T03:02:32.126Z,5.60
2022-11-22T03:04:58.945Z,5.60
2022-11-22T03:07:25.841Z,5.60
2022-11-22T03:09:52.792Z,6.10
2022-11-22T03:12:19.710Z,5.80
2022-11-22T03:14:46.645Z,5.70
2022-11-22T03:17:16.186Z,6.00
2022-11-22T03:19:43.019Z,5.80
2022-11-22T03:22:11.457Z,6.30
2022-11-22T03:24:38.604Z,6.50
2022-11-22T03:27:05.611Z,5.80
2022-11-22T03:29:35.208Z,5.80
2022-11-22T03:32:02.194Z,6.80
2022-11-22T03:34:29.205Z,6.00
2022-11-22T03:36:56.138Z,6.10
2022-11-22T03:39:23.025Z,6.00
2022-11-22T03:41:51.162Z,6.00
2022-11-22T03:44:18.037Z,7.10
2022-11-22T03:46:45.101Z,6.00
2022-11-22T03:49:12.254Z,6.40
2022-11-22T03:51:39.346Z,5.80
2022-11-22T03:54:06.227Z,6.00
2022-11-22T03:56:33.193Z,6.30
2022-11-22T03:59:00.173Z,6.10
2022-11-22T04:01:27.129Z,5.90
2022-11-22T04:03:54.059Z,6.80
2022-11-22T04:06:21.024Z,6.00
2022-11-22T04:08:48.004Z,6.60
2022-11-22T04:11:14.927Z,5.90
2022-11-22T04:14:00.362Z,7.30
2022-11-22T04:16:27.256Z,7.80
2022-11-22T04:18:56.472Z,5.20
2022-11-22T04:21:35.467Z,5.80
2022-11-22T04:24:28.994Z,5.90
2022-11-22T04:26:56.744Z,5.90
2022-11-22T04:29:24.367Z,5.90
2022-11-22T04:32:10.635Z,5.90
2022-11-22T04:34:37.906Z,7.40
2022-11-22T04:37:06.062Z,6.40
2022-11-22T04:39:33.456Z,7.60
2022-11-22T04:42:18.976Z,6.70
2022-11-22T04:44:46.303Z,5.90
2022-11-22T04:47:38.933Z,7.80
2022-11-22T04:50:28.115Z,7.40
2022-11-22T04:52:57.814Z,6.00
2022-11-22T04:55:24.918Z,6.00
2022-11-22T04:57:56.082Z,6.00
2022-11-22T05:00:27.621Z,6.20
2022-11-22T05:02:54.615Z,6.70
2022-11-22T05:05:21.618Z,6.80
2022-11-22T05:07:48.642Z,7.10
2022-11-22T05:10:16.694Z,7.10
2022-11-22T05:12:45.155Z,6.00
2022-11-22T05:15:12.407Z,6.00
2022-11-22T05:17:39.750Z,6.00
2022-11-22T05:20:08.204Z,6.00
2022-11-22T05:22:54.513Z,6.00
2022-11-22T05:25:25.514Z,6.80
2022-11-22T05:28:00.421Z,7.40
2022-11-22T05:30:29.432Z,6.00
2022-11-22T05:32:56.509Z,6.00
2022-11-22T05:35:23.623Z,6.00
2022-11-22T05:37:50.576Z,6.00
2022-11-22T05:40:17.568Z,6.10
2022-11-22T05:42:44.526Z,6.00
2022-11-22T05:45:11.545Z,6.20
2022-11-22T05:47:38.679Z,6.70
2022-11-22T05:50:06.091Z,6.20
2022-11-22T05:52:33.150Z,6.10
2022-11-22T05:55:00.070Z,6.10
2022-11-22T05:57:27.792Z,6.00
2022-11-22T05:59:55.074Z,6.10
2022-11-22T06:02:22.110Z,7.00
2022-11-22T06:04:49.190Z,7.40
2022-11-22T06:07:16.249Z,6.10
2022-11-22T06:09:43.200Z,6.20
2022-11-22T06:12:10.151Z,6.10
2022-11-22T06:14:42.999Z,6.10
2022-11-22T06:17:10.606Z,6.10
2022-11-22T06:19:37.619Z,7.40
2022-11-22T06:22:04.526Z,6.10
2022-11-22T06:24:31.405Z,6.10
2022-11-22T06:26:58.277Z,7.90
2022-11-22T06:29:25.262Z,7.30
2022-11-22T06:31:52.177Z,7.10
2022-11-22T06:34:19.101Z,7.00
2022-11-22T06:36:46.669Z,6.10
2022-11-22T06:39:13.743Z,7.40
2022-11-22T06:41:40.925Z,5.60
2022-11-22T06:44:09.688Z,6.20
2022-11-22T06:46:37.322Z,6.30
2022-11-22T06:49:04.915Z,6.50
2022-11-22T06:51:34.338Z,6.20
2022-11-22T06:54:01.364Z,6.40
2022-11-22T06:56:39.245Z,6.30
2022-11-22T06:59:07.821Z,6.10
2022-11-22T07:01:36.223Z,6.40
2022-11-22T07:04:04.720Z,6.20
2022-11-22T07:06:37.395Z,6.30
2022-11-22T07:09:06.961Z,6.40
2022-11-22T07:11:34.964Z,6.30
2022-11-22T07:14:08.357Z,6.80
2022-11-22T07:16:37.692Z,7.50
2022-11-22T07:19:05.801Z,8.20
2022-11-22T07:21:32.997Z,6.70
2022-11-22T07:24:00.346Z,6.80
2022-11-22T07:26:28.915Z,6.80
2022-11-22T07:29:01.886Z,6.40
2022-11-22T07:31:32.453Z,7.50
2022-11-22T07:33:59.665Z,6.30
2022-11-22T07:36:29.762Z,6.30
2022-11-22T07:38:57.154Z,6.30
2022-11-22T07:41:24.378Z,7.90
2022-11-22T07:43:53.207Z,6.40
2022-11-22T07:46:26.367Z,7.20
2022-11-22T07:48:56.209Z,7.60
2022-11-22T07:51:23.148Z,6.50
2022-11-22T07:53:50.665Z,6.40
2022-11-22T07:56:18.240Z,7.80
2022-11-22T07:58:48.520Z,7.50
2022-11-22T08:01:17.108Z,6.60
2022-11-22T08:03:54.499Z,6.50
2022-11-22T08:06:21.414Z,6.80
2022-11-22T08:08:50.923Z,6.70
2022-11-22T08:11:17.959Z,8.60
2022-11-22T08:13:45.213Z,7.70
2022-11-22T08:16:16.150Z,6.60
2022-11-22T08:18:47.774Z,6.50
2022-11-22T08:21:15.044Z,6.70
2022-11-22T08:23:43.266Z,7.90
2022-11-22T08:26:13.204Z,7.80
2022-11-22T08:28:44.419Z,6.60
2022-11-22T08:31:14.983Z,6.80
2022-11-22T08:33:48.873Z,6.70
2022-11-22T08:36:18.352Z,6.70
2022-11-22T08:38:47.149Z,6.90
2022-11-22T08:41:18.207Z,6.80
2022-11-22T08:43:45.453Z,8.80
2022-11-22T08:46:13.016Z,7.20
2022-11-22T08:48:48.457Z,7.40
2022-11-22T08:51:23.462Z,7.10
2022-11-22T08:54:37.339Z,7.50
2022-11-22T08:57:47.688Z,7.50
2022-11-22T09:00:37.951Z,7.10
2022-11-22T09:09:39.984Z,7.80
2022-11-22T09:12:27.748Z,7.20
2022-11-22T09:15:03.364Z,6.60
2022-11-22T09:17:34.460Z,7.70
2022-11-22T09:20:09.825Z,7.20
2022-11-22T09:22:40.596Z,7.10
2022-11-22T09:25:14.715Z,7.30
2022-11-22T09:27:49.857Z,7.50
2022-11-22T09:30:31.752Z,7.50
2022-11-22T09:33:10.531Z,7.50
2022-11-22T09:35:40.685Z,6.60
2022-11-22T09:38:20.961Z,7.50
2022-11-22T09:40:55.460Z,7.40
2022-11-22T09:43:57.554Z,7.60
2022-11-22T09:46:38.481Z,7.50
2022-11-22T09:49:35.332Z,7.60
2022-11-22T09:52:27.240Z,6.70
2022-11-22T09:55:03.584Z,7.60
2022-11-22T09:57:51.844Z,8.70
2022-11-22T10:00:37.404Z,7.90
2022-11-22T10:03:22.058Z,7.80
2022-11-22T10:06:12.620Z,7.80
2022-11-22T10:09:29.678Z,7.80
2022-11-22T10:13:11.345Z,7.80
2022-11-22T10:16:18.248Z,7.50
2022-11-22T10:19:24.467Z,8.60
2022-11-22T10:21:51.590Z,7.60
2022-11-22T10:27:28.596Z,7.90
2022-11-22T10:34:13.009Z,7.80
2022-11-22T10:37:46.154Z,7.70
2022-11-22T10:43:38.342Z,9.40
2022-11-22T10:46:10.929Z,7.80
2022-11-22T10:48:51.193Z,7.90
2022-11-22T10:51:44.697Z,7.90
2022-11-22T10:54:24.900Z,8.00
2022-11-22T10:56:51.877Z,8.00
2022-11-22T10:59:43.032Z,8.00
2022-11-22T11:02:09.906Z,8.00
2022-11-22T11:04:40.883Z,8.00
2022-11-22T11:07:15.603Z,8.00
2022-11-22T11:12:56.830Z,8.10
2022-11-22T11:15:30.628Z,8.10
2022-11-22T11:18:01.925Z,8.10
2022-11-22T11:20:37.627Z,8.10
2022-11-22T11:23:20.199Z,8.20
2022-11-22T11:25:48.783Z,8.30
2022-11-22T11:28:27.652Z,8.30
2022-11-22T11:31:01.327Z,8.30
2022-11-22T11:33:31.281Z,8.30
2022-11-22T11:36:23.434Z,8.30
2022-11-22T11:38:56.146Z,8.30
2022-11-22T11:41:31.694Z,8.30
2022-11-22T11:44:04.735Z,8.30
2022-11-22T11:46:40.649Z,8.20
2022-11-22T11:49:17.534Z,8.30
2022-11-22T11:51:45.601Z,8.20
2022-11-22T11:54:28.178Z,8.30
2022-11-22T11:56:59.866Z,8.30
2022-11-22T11:59:40.807Z,8.30
2022-11-22T12:02:28.154Z,8.30
2022-11-22T12:05:05.284Z,8.30
2022-11-22T12:07:44.709Z,8.30
2022-11-22T12:10:30.576Z,8.40
2022-11-22T12:13:04.885Z,8.40
2022-11-22T12:15:47.242Z,8.50
2022-11-22T12:18:38.875Z,8.50
2022-11-22T12:21:39.140Z,8.60
2022-11-22T12:24:48.411Z,8.60
2022-11-22T12:27:15.003Z,8.70
2022-11-22T12:29:44.591Z,8.70
2022-11-22T12:32:27.583Z,8.70
2022-11-22T12:35:03.476Z,8.70
2022-11-22T12:37:39.176Z,8.80
2022-11-22T12:40:16.676Z,8.80
2022-11-22T12:42:56.050Z,8.90
2022-11-22T12:45:36.424Z,8.80
2022-11-22T12:48:26.306Z,8.80
2022-11-22T12:50:56.109Z,8.80
2022-11-22T12:53:36.452Z,8.90
2022-11-22T12:56:29.828Z,8.90
2022-11-22T12:59:15.615Z,8.90
2022-11-22T13:01:42.531Z,8.90
2022-11-22T13:04:09.391Z,8.90
2022-11-22T13:06:57.016Z,8.80
2022-11-22T13:09:29.630Z,8.80
2022-11-22T13:12:02.910Z,8.80
2022-11-22T13:14:50.016Z,8.80
2022-11-22T13:17:18.154Z,8.80
2022-11-22T13:19:55.640Z,8.80
2022-11-22T13:22:49.866Z,8.80
2022-11-22T13:25:35.518Z,8.80
2022-11-22T13:28:25.510Z,8.80
2022-11-22T13:31:12.947Z,8.80
2022-11-22T13:33:55.024Z,8.80
2022-11-22T13:36:27.824Z,8.80
2022-11-22T13:38:57.335Z,8.80
2022-11-22T13:41:46.122Z,8.80
2022-11-22T13:44:26.951Z,8.70
2022-11-22T13:47:00.506Z,8.70
2022-11-22T13:49:38.291Z,8.70
2022-11-22T13:52:12.789Z,8.70
2022-11-22T13:55:01.567Z,8.70
2022-11-22T13:57:40.198Z,8.70
2022-11-22T14:00:14.159Z,8.70
2022-11-22T14:02:47.041Z,8.70
2022-11-22T14:05:41.037Z,8.70
2022-11-22T14:08:28.592Z,8.70
2022-11-22T14:10:55.684Z,8.70
2022-11-22T14:13:35.028Z,8.70
2022-11-22T14:16:04.832Z,8.80
2022-11-22T14:18:55.825Z,8.80
2022-11-22T14:21:46.455Z,8.80
2022-11-22T14:24:28.874Z,8.80
2022-11-22T14:27:23.725Z,8.80
2022-11-22T14:30:15.147Z,8.70
2022-11-22T14:32:54.328Z,8.80
2022-11-22T14:35:29.457Z,8.80
2022-11-22T14:38:05.607Z,8.80
2022-11-22T14:40:40.504Z,8.80
2022-11-22T14:43:17.070Z,8.70
2022-11-22T14:45:52.651Z,8.70
2022-11-22T14:48:26.076Z,8.70
2022-11-22T14:51:07.083Z,8.80
2022-11-22T14:53:34.639Z,8.70
2022-11-22T14:56:18.152Z,8.70
2022-11-22T14:59:00.685Z,8.70
2022-11-22T15:01:46.445Z,8.70
2022-11-22T15:09:16.277Z,8.70
2022-11-22T15:09:20.359Z,8.70
2022-11-22T15:11:03.813Z,8.70
2022-11-22T15:13:45.834Z,8.60
2022-11-22T15:59:43.215Z,8.60
2022-11-22T16:02:26.125Z,8.50
2022-11-22T16:06:05.401Z,8.50
2022-11-22T16:07:49.734Z,8.60
2022-11-22T16:10:19.952Z,8.50
2022-11-22T16:12:47.065Z,8.50
2022-11-22T16:15:38.087Z,8.50
2022-11-22T16:18:26.070Z,8.50
2022-11-22T16:21:12.398Z,8.50
2022-11-22T16:23:40.977Z,8.50
2022-11-22T16:26:24.716Z,8.50
2022-11-22T16:28:56.107Z,8.50
2022-11-22T16:31:27.527Z,8.50
2022-11-22T16:33:56.182Z,8.50
2022-11-22T16:36:25.066Z,8.50
2022-11-22T16:38:51.939Z,8.50
2022-11-22T16:41:21.732Z,8.50
2022-11-22T16:44:12.935Z,8.60
2022-11-22T16:46:40.779Z,8.50
2022-11-22T16:49:22.423Z,8.50
2022-11-22T16:51:50.735Z,8.60
2022-11-22T16:54:19.721Z,8.50
2022-11-22T16:56:47.708Z,8.60
2022-11-22T16:59:14.620Z,8.50
2022-11-22T17:01:44.900Z,8.50
2022-11-22T17:04:17.469Z,8.50
2022-11-22T17:06:45.980Z,8.50
2022-11-22T17:09:13.184Z,8.50
2022-11-22T17:11:41.127Z,8.50
2022-11-22T17:14:14.626Z,8.50
2022-11-22T17:16:42.562Z,8.50
2022-11-22T17:19:19.103Z,8.50
2022-11-22T17:21:57.224Z,8.50
2022-11-22T17:24:24.290Z,8.50
2022-11-22T17:26:51.469Z,8.50
2022-11-22T17:29:43.381Z,8.50
2022-11-22T17:32:05.733Z,8.50
2022-11-22T17:34:33.242Z,8.50
2022-11-22T17:37:00.410Z,8.50
2022-11-22T17:39:27.435Z,8.50
2022-11-22T17:41:54.297Z,8.50
2022-11-22T17:44:21.897Z,8.50
2022-11-22T17:46:48.782Z,8.50
2022-11-22T17:49:16.594Z,8.60
2022-11-22T17:51:47.042Z,8.50
2022-11-22T17:54:14.068Z,8.70
2022-11-22T17:56:41.142Z,8.60
2022-11-22T17:59:08.070Z,8.60
2022-11-22T18:01:36.975Z,8.60
2022-11-22T18:04:04.110Z,8.60
2022-11-22T18:06:31.465Z,8.60
2022-11-22T18:11:25.865Z,8.60
2022-11-22T18:13:52.795Z,8.60
2022-11-22T18:16:19.810Z,8.60
2022-11-22T18:21:31.019Z,8.60
2022-11-22T18:23:59.094Z,8.60
2022-11-22T18:26:42.507Z,8.60
2022-11-22T18:29:41.745Z,8.60
2022-11-22T18:32:00.413Z,8.60
2022-11-22T18:34:28.182Z,8.60
2022-11-22T18:37:01.499Z,8.70
2022-11-22T18:39:32.002Z,8.60
2022-11-22T18:41:59.249Z,8.70
2022-11-22T18:44:26.205Z,8.70
2022-11-22T18:46:53.167Z,8.60
2022-11-22T18:49:20.024Z,8.60
2022-11-22T18:51:46.952Z,8.60
2022-11-22T18:56:41.365Z,8.70
2022-11-22T18:59:12.507Z,8.60
2022-11-22T19:01:40.054Z,8.70
2022-11-22T19:04:07.456Z,8.70
2022-11-22T19:06:34.574Z,8.60
2022-11-22T19:09:02.422Z,8.60
2022-11-22T19:11:32.162Z,8.70
2022-11-22T19:13:59.443Z,8.60
2022-11-22T19:16:30.430Z,8.60
2022-11-22T19:18:58.683Z,8.60
2022-11-22T19:21:28.130Z,8.70
2022-11-22T19:23:56.403Z,8.60
2022-11-22T19:26:26.090Z,8.60
2022-11-22T19:28:57.860Z,8.60
2022-11-22T19:31:29.259Z,8.60
2022-11-22T19:33:56.730Z,8.70
2022-11-22T19:36:32.856Z,8.70
2022-11-22T19:39:01.332Z,8.70
2022-11-22T19:41:28.363Z,8.70
2022-11-22T19:43:56.731Z,8.70
2022-11-22T19:46:24.856Z,8.70
2022-11-22T19:48:53.344Z,8.70
2022-11-22T19:53:47.925Z,8.80
2022-11-22T19:56:18.954Z,8.80
2022-11-22T19:58:54.150Z,8.80
2022-11-22T20:01:23.107Z,8.80
2022-11-22T20:03:55.091Z,8.70
2022-11-22T20:11:19.427Z,8.70
2022-11-22T20:13:52.527Z,8.70
2022-11-22T20:16:25.685Z,8.80
2022-11-22T20:18:57.390Z,8.80
2022-11-22T20:21:33.665Z,8.70
2022-11-22T20:49:33.395Z,8.70
2022-11-22T21:44:09.540Z,8.70
2022-11-22T21:49:05.604Z,8.70
2022-11-22T21:54:01.481Z,8.70
2022-11-22T21:58:58.691Z,9.80
2022-11-22T22:18:46.396Z,8.60
2022-11-22T22:23:42.197Z,8.60
2022-11-22T22:26:17.523Z,9.00
2022-11-22T22:31:22.283Z,8.60
2022-11-22T22:33:59.540Z,8.60
2022-11-22T22:36:27.296Z,8.60
2022-11-22T22:46:24.821Z,8.70
2022-11-22T22:51:31.648Z,8.70
2022-11-22T22:56:31.030Z,8.70
2022-11-22T22:59:01.020Z,8.70
2022-11-22T23:01:30.540Z,8.70
2022-11-22T23:04:00.001Z,8.70
2022-11-22T23:06:29.586Z,8.70
2022-11-22T23:11:45.594Z,8.70
2022-11-22T23:14:14.431Z,8.70
2022-11-22T23:19:09.214Z,8.70
2022-11-22T23:36:22.940Z,8.70
2022-11-22T23:41:22.654Z,8.70
2022-11-22T23:43:54.760Z,8.70
2022-11-22T23:46:24.853Z,8.70
2022-11-22T23:48:57.435Z,8.60
2022-11-22T23:51:25.400Z,8.70
2022-11-22T23:54:00.795Z,8.60
2022-11-22T23:56:28.871Z,8.60
